sensor_id;sensor_type;location;lat;lon;timestamp;temperature;humidity
58153;DHT22;43967;51.634;5.566;2023-04-03T00:03:41;17.20;65.80
58153;DHT22;43967;51.634;5.566;2023-04-03T00:09:02;17.20;65.70
58153;DHT22;43967;51.634;5.566;2023-04-03T00:14:24;17.20;65.80
58153;DHT22;43967;51.634;5.566;2023-04-03T00:19:45;17.20;65.70
58153;DHT22;43967;51.634;5.566;2023-04-03T00:25:07;17.20;66.00
58153;DHT22;43967;51.634;5.566;2023-04-03T00:30:29;17.20;66.20
58153;DHT22;43967;51.634;5.566;2023-04-03T00:35:50;17.20;66.30
58153;DHT22;43967;51.634;5.566;2023-04-03T00:41:12;17.20;66.30
58153;DHT22;43967;51.634;5.566;2023-04-03T00:46:33;17.20;66.50
58153;DHT22;43967;51.634;5.566;2023-04-03T00:51:55;17.20;66.50
58153;DHT22;43967;51.634;5.566;2023-04-03T00:57:18;17.30;66.60
58153;DHT22;43967;51.634;5.566;2023-04-03T01:02:42;17.30;66.60
58153;DHT22;43967;51.634;5.566;2023-04-03T01:08:04;17.30;66.50
58153;DHT22;43967;51.634;5.566;2023-04-03T01:13:31;17.30;66.40
58153;DHT22;43967;51.634;5.566;2023-04-03T01:18:52;17.30;66.40
58153;DHT22;43967;51.634;5.566;2023-04-03T01:24:25;17.30;66.30
58153;DHT22;43967;51.634;5.566;2023-04-03T01:29:49;17.30;66.10
58153;DHT22;43967;51.634;5.566;2023-04-03T01:35:12;17.20;65.80
58153;DHT22;43967;51.634;5.566;2023-04-03T01:40:33;17.20;65.70
58153;DHT22;43967;51.634;5.566;2023-04-03T01:45:55;17.20;65.50
58153;DHT22;43967;51.634;5.566;2023-04-03T01:51:16;17.20;65.40
58153;DHT22;43967;51.634;5.566;2023-04-03T01:56:38;17.20;65.40
58153;DHT22;43967;51.634;5.566;2023-04-03T02:02:01;17.20;65.40
58153;DHT22;43967;51.634;5.566;2023-04-03T02:07:22;17.10;65.30
58153;DHT22;43967;51.634;5.566;2023-04-03T02:12:43;17.10;65.60
58153;DHT22;43967;51.634;5.566;2023-04-03T02:18:06;17.10;65.60
58153;DHT22;43967;51.634;5.566;2023-04-03T02:23:28;17.20;65.80
58153;DHT22;43967;51.634;5.566;2023-04-03T02:28:49;17.20;65.90
58153;DHT22;43967;51.634;5.566;2023-04-03T02:34:11;17.20;65.90
58153;DHT22;43967;51.634;5.566;2023-04-03T02:39:32;17.20;66.00
58153;DHT22;43967;51.634;5.566;2023-04-03T02:44:55;17.20;66.10
58153;DHT22;43967;51.634;5.566;2023-04-03T02:50:18;17.20;66.10
58153;DHT22;43967;51.634;5.566;2023-04-03T02:55:41;17.20;66.10
58153;DHT22;43967;51.634;5.566;2023-04-03T03:01:03;17.20;66.00
58153;DHT22;43967;51.634;5.566;2023-04-03T03:06:24;17.20;66.00
58153;DHT22;43967;51.634;5.566;2023-04-03T03:11:45;17.20;65.90
58153;DHT22;43967;51.634;5.566;2023-04-03T03:17:08;17.20;65.80
58153;DHT22;43967;51.634;5.566;2023-04-03T03:22:29;17.20;65.70
58153;DHT22;43967;51.634;5.566;2023-04-03T03:27:51;17.20;65.60
58153;DHT22;43967;51.634;5.566;2023-04-03T03:33:14;17.20;65.40
58153;DHT22;43967;51.634;5.566;2023-04-03T03:38:35;17.20;65.10
58153;DHT22;43967;51.634;5.566;2023-04-03T03:43:57;17.10;65.00
58153;DHT22;43967;51.634;5.566;2023-04-03T03:49:19;17.10;64.90
58153;DHT22;43967;51.634;5.566;2023-04-03T03:54:40;17.10;64.90
58153;DHT22;43967;51.634;5.566;2023-04-03T04:00:03;17.10;64.90
58153;DHT22;43967;51.634;5.566;2023-04-03T04:05:27;17.10;65.10
58153;DHT22;43967;51.634;5.566;2023-04-03T04:10:49;17.10;65.10
58153;DHT22;43967;51.634;5.566;2023-04-03T04:16:10;17.10;65.20
58153;DHT22;43967;51.634;5.566;2023-04-03T04:21:32;17.10;65.40
58153;DHT22;43967;51.634;5.566;2023-04-03T04:26:53;17.10;65.40
58153;DHT22;43967;51.634;5.566;2023-04-03T04:32:15;17.10;65.50
58153;DHT22;43967;51.634;5.566;2023-04-03T04:37:36;17.10;65.50
58153;DHT22;43967;51.634;5.566;2023-04-03T04:42:57;17.10;65.60
58153;DHT22;43967;51.634;5.566;2023-04-03T04:48:19;17.20;65.60
58153;DHT22;43967;51.634;5.566;2023-04-03T04:53:42;17.20;65.70
58153;DHT22;43967;51.634;5.566;2023-04-03T04:59:04;17.20;65.70
58153;DHT22;43967;51.634;5.566;2023-04-03T05:04:25;17.20;65.60
58153;DHT22;43967;51.634;5.566;2023-04-03T05:09:48;17.20;65.70
58153;DHT22;43967;51.634;5.566;2023-04-03T05:15:11;17.20;65.70
58153;DHT22;43967;51.634;5.566;2023-04-03T05:20:33;17.20;65.60
58153;DHT22;43967;51.634;5.566;2023-04-03T05:25:54;17.20;65.60
58153;DHT22;43967;51.634;5.566;2023-04-03T05:31:16;17.20;65.40
58153;DHT22;43967;51.634;5.566;2023-04-03T05:36:37;17.20;65.40
58153;DHT22;43967;51.634;5.566;2023-04-03T05:41:59;17.20;65.20
58153;DHT22;43967;51.634;5.566;2023-04-03T05:47:20;17.10;65.10
58153;DHT22;43967;51.634;5.566;2023-04-03T05:52:45;17.20;64.90
58153;DHT22;43967;51.634;5.566;2023-04-03T05:58:06;17.10;64.80
58153;DHT22;43967;51.634;5.566;2023-04-03T06:03:28;17.10;64.70
58153;DHT22;43967;51.634;5.566;2023-04-03T06:08:49;17.10;64.60
58153;DHT22;43967;51.634;5.566;2023-04-03T06:14:11;17.10;64.60
58153;DHT22;43967;51.634;5.566;2023-04-03T06:19:32;17.10;64.50
58153;DHT22;43967;51.634;5.566;2023-04-03T06:24:54;17.00;64.50
58153;DHT22;43967;51.634;5.566;2023-04-03T06:30:15;17.10;65.30
58153;DHT22;43967;51.634;5.566;2023-04-03T06:35:37;17.10;65.60
58153;DHT22;43967;51.634;5.566;2023-04-03T06:40:58;17.00;66.00
58153;DHT22;43967;51.634;5.566;2023-04-03T06:46:21;17.10;66.20
58153;DHT22;43967;51.634;5.566;2023-04-03T06:51:43;17.30;66.30
58153;DHT22;43967;51.634;5.566;2023-04-03T06:57:04;17.50;66.50
58153;DHT22;43967;51.634;5.566;2023-04-03T07:02:25;17.70;66.40
58153;DHT22;43967;51.634;5.566;2023-04-03T07:07:46;17.80;66.50
58153;DHT22;43967;51.634;5.566;2023-04-03T07:13:08;17.90;66.50
58153;DHT22;43967;51.634;5.566;2023-04-03T07:18:29;18.00;66.30
58153;DHT22;43967;51.634;5.566;2023-04-03T07:23:50;18.10;66.10
58153;DHT22;43967;51.634;5.566;2023-04-03T07:29:12;18.30;66.00
58153;DHT22;43967;51.634;5.566;2023-04-03T07:34:33;18.30;66.50
58153;DHT22;43967;51.634;5.566;2023-04-03T07:39:54;18.30;65.60
58153;DHT22;43967;51.634;5.566;2023-04-03T07:45:16;18.30;65.50
58153;DHT22;43967;51.634;5.566;2023-04-03T07:50:40;18.40;65.30
58153;DHT22;43967;51.634;5.566;2023-04-03T07:56:01;18.40;65.00
58153;DHT22;43967;51.634;5.566;2023-04-03T08:01:22;18.40;64.80
58153;DHT22;43967;51.634;5.566;2023-04-03T08:06:43;18.40;65.00
58153;DHT22;43967;51.634;5.566;2023-04-03T08:12:05;18.40;65.00
58153;DHT22;43967;51.634;5.566;2023-04-03T08:17:28;18.40;65.30
58153;DHT22;43967;51.634;5.566;2023-04-03T08:22:49;18.40;65.50
58153;DHT22;43967;51.634;5.566;2023-04-03T08:28:11;18.60;65.20
58153;DHT22;43967;51.634;5.566;2023-04-03T08:33:33;18.70;64.90
58153;DHT22;43967;51.634;5.566;2023-04-03T08:38:57;18.70;64.60
58153;DHT22;43967;51.634;5.566;2023-04-03T08:44:25;18.70;64.80
58153;DHT22;43967;51.634;5.566;2023-04-03T08:49:55;18.60;65.00
58153;DHT22;43967;51.634;5.566;2023-04-03T08:55:27;18.50;64.30
58153;DHT22;43967;51.634;5.566;2023-04-03T09:00:55;18.50;64.20
58153;DHT22;43967;51.634;5.566;2023-04-03T09:06:26;18.40;60.00
58153;DHT22;43967;51.634;5.566;2023-04-03T09:12:00;18.30;63.50
58153;DHT22;43967;51.634;5.566;2023-04-03T09:23:33;18.30;65.90
58153;DHT22;43967;51.634;5.566;2023-04-03T09:29:04;18.20;66.80
58153;DHT22;43967;51.634;5.566;2023-04-03T09:34:35;18.10;68.10
58153;DHT22;43967;51.634;5.566;2023-04-03T09:39:57;18.20;69.00
58153;DHT22;43967;51.634;5.566;2023-04-03T09:45:30;18.20;69.30
58153;DHT22;43967;51.634;5.566;2023-04-03T09:51:00;18.10;69.30
58153;DHT22;43967;51.634;5.566;2023-04-03T09:56:27;18.10;69.30
58153;DHT22;43967;51.634;5.566;2023-04-03T10:02:00;18.10;69.20
58153;DHT22;43967;51.634;5.566;2023-04-03T10:07:31;18.10;69.10
58153;DHT22;43967;51.634;5.566;2023-04-03T10:13:23;18.10;69.00
58153;DHT22;43967;51.634;5.566;2023-04-03T10:18:56;18.00;68.60
58153;DHT22;43967;51.634;5.566;2023-04-03T10:30:08;18.10;69.70
58153;DHT22;43967;51.634;5.566;2023-04-03T10:47:38;18.10;70.60
58153;DHT22;43967;51.634;5.566;2023-04-03T10:52:41;18.10;70.30
58153;DHT22;43967;51.634;5.566;2023-04-03T10:58:05;18.10;69.90
58153;DHT22;43967;51.634;5.566;2023-04-03T11:03:34;18.00;69.50
58153;DHT22;43967;51.634;5.566;2023-04-03T11:09:25;18.00;69.10
58153;DHT22;43967;51.634;5.566;2023-04-03T11:14:47;18.00;68.70
58153;DHT22;43967;51.634;5.566;2023-04-03T11:20:23;18.00;68.30
58153;DHT22;43967;51.634;5.566;2023-04-03T11:25:51;18.00;68.10
58153;DHT22;43967;51.634;5.566;2023-04-03T11:36:56;18.00;67.50
58153;DHT22;43967;51.634;5.566;2023-04-03T11:42:42;18.00;67.40
58153;DHT22;43967;51.634;5.566;2023-04-03T11:48:06;18.00;67.30
58153;DHT22;43967;51.634;5.566;2023-04-03T11:53:37;18.00;67.20
58153;DHT22;43967;51.634;5.566;2023-04-03T12:04:33;17.90;66.90
58153;DHT22;43967;51.634;5.566;2023-04-03T12:09:58;17.90;66.70
58153;DHT22;43967;51.634;5.566;2023-04-03T12:15:25;17.90;66.50
58153;DHT22;43967;51.634;5.566;2023-04-03T12:20:54;17.90;66.40
58153;DHT22;43967;51.634;5.566;2023-04-03T12:26:21;17.80;66.20
58153;DHT22;43967;51.634;5.566;2023-04-03T12:43:30;17.80;65.70
58153;DHT22;43967;51.634;5.566;2023-04-03T12:48:58;17.80;65.60
58153;DHT22;43967;51.634;5.566;2023-04-03T12:54:23;17.80;65.50
58153;DHT22;43967;51.634;5.566;2023-04-03T12:59:48;17.80;65.50
58153;DHT22;43967;51.634;5.566;2023-04-03T13:05:15;17.70;65.30
58153;DHT22;43967;51.634;5.566;2023-04-03T13:10:55;17.70;65.20
58153;DHT22;43967;51.634;5.566;2023-04-03T13:16:17;17.70;64.90
58153;DHT22;43967;51.634;5.566;2023-04-03T13:21:38;17.70;65.20
58153;DHT22;43967;51.634;5.566;2023-04-03T13:26:59;17.80;65.50
58153;DHT22;43967;51.634;5.566;2023-04-03T13:32:23;17.80;66.00
58153;DHT22;43967;51.634;5.566;2023-04-03T13:38:00;17.80;67.10
58153;DHT22;43967;51.634;5.566;2023-04-03T13:43:28;17.80;67.20
58153;DHT22;43967;51.634;5.566;2023-04-03T13:48:51;17.80;67.30
58153;DHT22;43967;51.634;5.566;2023-04-03T13:59:40;17.80;60.10
58153;DHT22;43967;51.634;5.566;2023-04-03T14:05:02;17.90;60.40
58153;DHT22;43967;51.634;5.566;2023-04-03T14:10:24;18.20;60.20
58153;DHT22;43967;51.634;5.566;2023-04-03T14:15:46;18.40;59.80
58153;DHT22;43967;51.634;5.566;2023-04-03T14:21:12;18.60;59.50
58153;DHT22;43967;51.634;5.566;2023-04-03T14:26:33;18.80;59.00
58153;DHT22;43967;51.634;5.566;2023-04-03T14:31:55;19.00;58.50
58153;DHT22;43967;51.634;5.566;2023-04-03T14:37:20;19.20;58.10
58153;DHT22;43967;51.634;5.566;2023-04-03T14:42:42;19.40;57.80
58153;DHT22;43967;51.634;5.566;2023-04-03T14:48:03;19.60;57.60
58153;DHT22;43967;51.634;5.566;2023-04-03T14:53:24;19.70;57.20
58153;DHT22;43967;51.634;5.566;2023-04-03T14:58:46;19.80;57.50
58153;DHT22;43967;51.634;5.566;2023-04-03T15:04:19;19.70;58.30
58153;DHT22;43967;51.634;5.566;2023-04-03T15:09:40;19.60;58.70
58153;DHT22;43967;51.634;5.566;2023-04-03T15:15:01;19.50;59.00
58153;DHT22;43967;51.634;5.566;2023-04-03T15:20:27;19.40;59.40
58153;DHT22;43967;51.634;5.566;2023-04-03T15:25:48;19.40;59.50
58153;DHT22;43967;51.634;5.566;2023-04-03T15:31:10;19.40;59.80
58153;DHT22;43967;51.634;5.566;2023-04-03T15:36:31;19.30;59.80
58153;DHT22;43967;51.634;5.566;2023-04-03T15:41:53;19.30;60.00
58153;DHT22;43967;51.634;5.566;2023-04-03T15:47:14;19.20;60.00
58153;DHT22;43967;51.634;5.566;2023-04-03T15:52:36;19.20;60.00
58153;DHT22;43967;51.634;5.566;2023-04-03T15:57:58;19.00;59.20
58153;DHT22;43967;51.634;5.566;2023-04-03T16:03:20;19.10;59.00
58153;DHT22;43967;51.634;5.566;2023-04-03T16:08:42;19.00;58.70
58153;DHT22;43967;51.634;5.566;2023-04-03T16:14:03;18.90;58.70
58153;DHT22;43967;51.634;5.566;2023-04-03T16:19:24;18.90;59.30
58153;DHT22;43967;51.634;5.566;2023-04-03T16:24:46;18.90;59.80
58153;DHT22;43967;51.634;5.566;2023-04-03T16:30:08;18.80;60.20
58153;DHT22;43967;51.634;5.566;2023-04-03T16:35:29;18.80;60.40
58153;DHT22;43967;51.634;5.566;2023-04-03T16:40:51;18.80;60.60
58153;DHT22;43967;51.634;5.566;2023-04-03T16:46:12;18.80;60.60
58153;DHT22;43967;51.634;5.566;2023-04-03T16:51:33;18.80;60.60
58153;DHT22;43967;51.634;5.566;2023-04-03T16:56:55;18.70;60.20
58153;DHT22;43967;51.634;5.566;2023-04-03T17:02:16;18.60;59.90
58153;DHT22;43967;51.634;5.566;2023-04-03T17:07:38;18.80;60.10
58153;DHT22;43967;51.634;5.566;2023-04-03T17:12:59;19.00;59.90
58153;DHT22;43967;51.634;5.566;2023-04-03T17:18:20;19.10;59.50
58153;DHT22;43967;51.634;5.566;2023-04-03T17:23:45;19.30;59.30
58153;DHT22;43967;51.634;5.566;2023-04-03T17:29:07;19.40;59.00
58153;DHT22;43967;51.634;5.566;2023-04-03T17:34:29;19.60;59.20
58153;DHT22;43967;51.634;5.566;2023-04-03T17:39:50;19.80;59.30
58153;DHT22;43967;51.634;5.566;2023-04-03T17:45:11;19.90;74.00
58153;DHT22;43967;51.634;5.566;2023-04-03T17:50:33;20.10;73.70
58153;DHT22;43967;51.634;5.566;2023-04-03T17:55:54;20.30;74.00
58153;DHT22;43967;51.634;5.566;2023-04-03T18:01:20;20.40;74.00
58153;DHT22;43967;51.634;5.566;2023-04-03T18:06:45;20.50;74.30
58153;DHT22;43967;51.634;5.566;2023-04-03T18:12:08;20.60;74.40
58153;DHT22;43967;51.634;5.566;2023-04-03T18:17:29;20.80;74.20
58153;DHT22;43967;51.634;5.566;2023-04-03T18:22:51;20.80;74.20
58153;DHT22;43967;51.634;5.566;2023-04-03T18:28:12;21.00;74.20
58153;DHT22;43967;51.634;5.566;2023-04-03T18:33:33;21.00;74.10
58153;DHT22;43967;51.634;5.566;2023-04-03T18:38:55;21.10;73.80
58153;DHT22;43967;51.634;5.566;2023-04-03T18:44:20;21.20;73.60
58153;DHT22;43967;51.634;5.566;2023-04-03T18:49:42;21.30;73.60
58153;DHT22;43967;51.634;5.566;2023-04-03T18:55:04;21.20;72.00
58153;DHT22;43967;51.634;5.566;2023-04-03T19:00:26;21.40;72.90
58153;DHT22;43967;51.634;5.566;2023-04-03T19:11:09;21.50;64.40
58153;DHT22;43967;51.634;5.566;2023-04-03T19:16:31;21.60;63.90
58153;DHT22;43967;51.634;5.566;2023-04-03T19:21:52;21.60;63.90
58153;DHT22;43967;51.634;5.566;2023-04-03T19:27:13;21.70;63.50
58153;DHT22;43967;51.634;5.566;2023-04-03T19:32:35;21.50;63.60
58153;DHT22;43967;51.634;5.566;2023-04-03T19:37:56;21.40;64.00
58153;DHT22;43967;51.634;5.566;2023-04-03T19:43:17;21.20;64.50
58153;DHT22;43967;51.634;5.566;2023-04-03T19:48:39;21.10;64.80
58153;DHT22;43967;51.634;5.566;2023-04-03T19:54:00;21.00;65.10
58153;DHT22;43967;51.634;5.566;2023-04-03T19:59:21;20.90;64.40
58153;DHT22;43967;51.634;5.566;2023-04-03T20:04:43;20.70;64.00
58153;DHT22;43967;51.634;5.566;2023-04-03T20:10:04;20.60;63.80
58153;DHT22;43967;51.634;5.566;2023-04-03T20:15:25;20.50;63.60
58153;DHT22;43967;51.634;5.566;2023-04-03T20:20:54;20.30;63.30
58153;DHT22;43967;51.634;5.566;2023-04-03T20:26:21;20.30;63.20
58153;DHT22;43967;51.634;5.566;2023-04-03T20:31:43;20.10;63.00
58153;DHT22;43967;51.634;5.566;2023-04-03T20:37:04;20.00;62.90
58153;DHT22;43967;51.634;5.566;2023-04-03T20:42:25;19.90;62.70
58153;DHT22;43967;51.634;5.566;2023-04-03T20:47:47;19.90;62.70
58153;DHT22;43967;51.634;5.566;2023-04-03T20:53:09;19.80;62.60
58153;DHT22;43967;51.634;5.566;2023-04-03T20:58:30;19.70;62.50
58153;DHT22;43967;51.634;5.566;2023-04-03T21:03:54;19.70;62.50
58153;DHT22;43967;51.634;5.566;2023-04-03T21:21:17;19.50;62.20
58153;DHT22;43967;51.634;5.566;2023-04-03T21:26:39;19.40;62.10
58153;DHT22;43967;51.634;5.566;2023-04-03T21:32:01;19.40;62.10
58153;DHT22;43967;51.634;5.566;2023-04-03T21:37:22;19.40;62.00
58153;DHT22;43967;51.634;5.566;2023-04-03T21:42:43;19.30;62.00
58153;DHT22;43967;51.634;5.566;2023-04-03T21:48:04;19.30;61.90
58153;DHT22;43967;51.634;5.566;2023-04-03T21:53:26;19.20;61.90
58153;DHT22;43967;51.634;5.566;2023-04-03T21:58:47;19.20;61.80
58153;DHT22;43967;51.634;5.566;2023-04-03T22:04:08;19.10;61.80
58153;DHT22;43967;51.634;5.566;2023-04-03T22:09:30;19.10;61.60
58153;DHT22;43967;51.634;5.566;2023-04-03T22:14:51;19.10;61.50
58153;DHT22;43967;51.634;5.566;2023-04-03T22:20:12;19.00;61.40
58153;DHT22;43967;51.634;5.566;2023-04-03T22:25:34;19.00;61.40
58153;DHT22;43967;51.634;5.566;2023-04-03T22:30:55;19.00;61.30
58153;DHT22;43967;51.634;5.566;2023-04-03T22:36:16;18.90;61.20
58153;DHT22;43967;51.634;5.566;2023-04-03T22:41:38;18.90;61.20
58153;DHT22;43967;51.634;5.566;2023-04-03T22:46:59;18.80;61.10
58153;DHT22;43967;51.634;5.566;2023-04-03T22:52:20;18.80;61.00
58153;DHT22;43967;51.634;5.566;2023-04-03T22:57:45;18.80;61.00
58153;DHT22;43967;51.634;5.566;2023-04-03T23:03:06;18.80;60.90
58153;DHT22;43967;51.634;5.566;2023-04-03T23:08:28;18.70;60.80
58153;DHT22;43967;51.634;5.566;2023-04-03T23:13:49;18.70;60.80
58153;DHT22;43967;51.634;5.566;2023-04-03T23:19:11;18.70;60.80
58153;DHT22;43967;51.634;5.566;2023-04-03T23:24:32;18.60;60.70
58153;DHT22;43967;51.634;5.566;2023-04-03T23:29:53;18.60;60.60
58153;DHT22;43967;51.634;5.566;2023-04-03T23:35:15;18.60;60.60
58153;DHT22;43967;51.634;5.566;2023-04-03T23:40:36;18.60;60.60
58153;DHT22;43967;51.634;5.566;2023-04-03T23:45:57;18.50;60.40
58153;DHT22;43967;51.634;5.566;2023-04-03T23:51:19;18.60;60.40
58153;DHT22;43967;51.634;5.566;2023-04-03T23:56:40;18.50;60.30
